Time;durP1;ratioP1;P1;durP2;ratioP2;P2;SDS_P1;SDS_P2;PMS_P1;PMS_P2;Temp;Humidity;BMP_temperature;BMP_pressure;BME280_temperature;BME280_humidity;BME280_pressure;Samples;Min_cycle;Max_cycle;Signal;HPM_P1;HPM_P2
2022/02/01 00:00:56;;;;;;;23.95;4.20;;;;;;;11.47;67.42;101643.41;5023630;28;20546;-96
2022/02/01 00:03:24;;;;;;;24.83;4.38;;;;;;;11.61;67.21;101629.53;5015543;28;20030;-95
2022/02/01 00:05:58;;;;;;;22.63;3.97;;;;;;;11.63;67.28;101617.13;5014614;28;20065;-96
2022/02/01 00:35:45;;;;;;;23.75;3.67;;;;;;;11.96;66.94;101613.66;5014402;28;20117;-96
2022/02/01 00:40:43;;;;;;;18.60;3.70;;;;;;;11.82;67.03;101620.50;5013950;28;20038;-95
2022/02/01 00:43:09;;;;;;;25.50;4.10;;;;;;;11.62;68.16;101610.19;5012318;28;20034;-96
2022/02/01 00:45:34;;;;;;;33.83;4.07;;;;;;;11.83;67.35;101587.16;5011800;28;20096;-95
2022/02/01 00:48:00;;;;;;;26.23;4.53;;;;;;;11.73;67.76;101594.69;5012255;28;20192;-95
2022/02/01 00:50:25;;;;;;;21.90;4.38;;;;;;;11.64;67.97;101587.28;5012073;28;20117;-96
2022/02/01 00:52:51;;;;;;;22.67;4.82;;;;;;;11.69;67.93;101604.53;5011998;28;20021;-96
2022/02/01 00:55:17;;;;;;;21.20;4.35;;;;;;;11.82;67.32;101588.06;5012998;28;20026;-96
2022/02/01 00:57:42;;;;;;;32.35;4.93;;;;;;;12.14;66.15;101580.22;5012838;28;20030;-96
2022/02/01 01:00:11;;;;;;;17.15;4.57;;;;;;;11.96;66.73;101575.03;5013349;28;20096;-96
2022/02/01 01:02:37;;;;;;;23.58;5.75;;;;;;;11.96;67.17;101563.66;5013308;28;20088;-96
2022/02/01 01:05:04;;;;;;;24.52;6.03;;;;;;;11.94;66.71;101545.31;5012307;28;20096;-96
2022/02/01 01:07:29;;;;;;;29.10;7.43;;;;;;;11.95;66.82;101565.44;5014114;28;20124;-95
2022/02/01 01:09:56;;;;;;;17.42;5.20;;;;;;;11.96;67.29;101564.50;5012964;28;20093;-96
2022/02/01 01:12:23;;;;;;;20.95;5.93;;;;;;;12.03;66.59;101541.34;5012262;28;20500;-96
2022/02/01 01:15:10;;;;;;;26.30;5.90;;;;;;;12.10;66.38;101525.13;5014876;28;20056;-95
2022/02/01 01:44:46;;;;;;;19.45;4.85;;;;;;;12.18;66.57;101529.06;5016861;28;20045;-96
2022/02/01 01:55:42;;;;;;;24.35;4.68;;;;;;;12.45;64.95;101527.50;5019224;28;20041;-96
2022/02/01 01:58:09;;;;;;;29.17;4.88;;;;;;;12.55;64.68;101525.19;5015250;28;20026;-95
2022/02/01 02:03:17;;;;;;;15.60;4.97;;;;;;;12.36;65.22;101512.25;5015836;28;20490;-95
2022/02/01 02:05:43;;;;;;;22.70;4.80;;;;;;;12.17;65.66;101501.91;5017713;28;20096;-96
2022/02/01 02:08:08;;;;;;;20.60;4.95;;;;;;;12.42;64.76;101506.63;5015871;28;20025;-96
2022/02/01 02:10:41;;;;;;;18.90;3.80;;;;;;;12.19;65.41;101501.81;5015796;28;21055;-96
2022/02/01 02:18:20;;;;;;;29.23;3.90;;;;;;;12.05;66.03;101508.72;5018386;28;20030;-96
2022/02/01 02:20:49;;;;;;;23.00;4.45;;;;;;;12.21;65.75;101513.13;5016622;28;20030;-95
2022/02/01 02:23:15;;;;;;;15.15;3.50;;;;;;;12.16;65.95;101525.69;5017854;28;20112;-96
2022/02/01 02:25:41;;;;;;;16.83;3.65;;;;;;;12.25;65.47;101494.41;5014910;28;20506;-96
2022/02/01 02:28:10;;;;;;;21.85;3.88;;;;;;;12.40;65.04;101495.31;5014396;28;20365;-96
2022/02/01 02:30:36;;;;;;;20.08;3.75;;;;;;;12.35;65.16;101488.63;5014703;28;20029;-96
2022/02/01 02:33:06;;;;;;;23.77;3.90;;;;;;;12.36;65.03;101479.78;5016038;28;20022;-96
2022/02/01 02:35:36;;;;;;;18.77;5.38;;;;;;;12.29;65.38;101480.13;5014811;28;20026;-95
2022/02/01 02:38:07;;;;;;;20.00;4.82;;;;;;;12.44;64.74;101472.25;5014145;28;20116;-95
2022/02/01 02:40:59;;;;;;;22.42;4.50;;;;;;;12.40;65.25;101469.00;5014198;28;20046;-95
2022/02/01 02:46:05;;;;;;;20.98;4.25;;;;;;;12.26;65.38;101451.34;5014743;28;20033;-96
2022/02/01 02:48:30;;;;;;;22.48;4.00;;;;;;;12.45;64.82;101453.75;5014531;28;20030;-95
2022/02/01 02:50:56;;;;;;;23.95;4.10;;;;;;;12.26;65.43;101459.25;5014593;28;20026;-96
2022/02/01 02:53:21;;;;;;;30.30;3.88;;;;;;;11.92;66.51;101435.81;5014621;28;20112;-94
2022/02/01 02:55:46;;;;;;;28.95;5.00;;;;;;;11.92;66.18;101439.28;5016344;28;20109;-94
2022/02/01 02:58:12;;;;;;;18.30;3.85;;;;;;;12.15;65.69;101427.44;5013790;28;20486;-96
2022/02/01 03:00:38;;;;;;;24.75;4.85;;;;;;;12.30;65.52;101434.44;5014164;28;20030;-96
2022/02/01 03:03:04;;;;;;;26.50;6.13;;;;;;;12.26;65.20;101438.19;5015837;28;20104;-96
2022/02/01 03:05:29;;;;;;;17.55;4.70;;;;;;;12.18;65.64;101419.34;5014036;28;20032;-95
2022/02/01 03:07:54;;;;;;;18.63;3.30;;;;;;;12.35;65.00;101417.53;5015314;28;20022;-95
2022/02/01 03:10:20;;;;;;;34.50;5.03;;;;;;;12.27;64.93;101417.97;5013783;28;20017;-95
2022/02/01 03:13:12;;;;;;;29.33;4.32;;;;;;;12.27;65.26;101405.63;5013376;28;20069;-96
2022/02/01 03:20:31;;;;;;;23.67;4.38;;;;;;;12.27;65.65;101418.81;5035662;28;20156;-96
2022/02/01 03:22:56;;;;;;;23.85;4.03;;;;;;;12.40;65.23;101411.03;5035209;28;20466;-96
2022/02/01 03:25:22;;;;;;;28.77;5.57;;;;;;;12.04;65.94;101419.31;5033041;28;20054;-96
2022/02/01 03:27:47;;;;;;;29.13;4.45;;;;;;;12.21;65.79;101408.63;5034484;28;20033;-96
2022/02/01 03:30:12;;;;;;;21.88;4.15;;;;;;;12.14;66.45;101419.63;5036202;28;20029;-96
2022/02/01 03:32:38;;;;;;;26.55;4.35;;;;;;;12.09;66.23;101406.72;5035544;28;20036;-96
2022/02/01 03:35:04;;;;;;;28.02;4.60;;;;;;;12.03;66.59;101407.09;5039746;28;20029;-96
2022/02/01 03:37:29;;;;;;;29.17;5.72;;;;;;;12.19;66.03;101418.41;5038722;28;20065;-95
2022/02/01 03:39:54;;;;;;;23.67;4.85;;;;;;;12.25;66.04;101415.41;5039676;28;20459;-96
2022/02/01 03:42:21;;;;;;;19.80;4.22;;;;;;;12.09;66.79;101412.00;5035862;28;20097;-95
2022/02/01 03:44:46;;;;;;;23.75;4.63;;;;;;;12.16;66.39;101400.16;5033795;28;20025;-94
2022/02/01 03:47:12;;;;;;;15.25;4.20;;;;;;;12.25;66.10;101396.16;5037051;28;20029;-95
2022/02/01 03:49:41;;;;;;;23.65;4.82;;;;;;;12.18;66.68;101403.53;5041921;28;20087;-95
2022/02/01 03:52:09;;;;;;;36.17;6.22;;;;;;;12.17;66.56;101412.38;5039021;28;20471;-96
2022/02/01 03:54:36;;;;;;;21.02;4.93;;;;;;;11.97;67.38;101405.66;5035163;28;20147;-96
2022/02/01 03:57:04;;;;;;;21.52;4.40;;;;;;;12.43;66.02;101402.09;5034727;28;20028;-96
2022/02/01 03:59:29;;;;;;;29.38;4.95;;;;;;;12.42;66.09;101405.66;5032430;28;20021;-96
2022/02/01 04:01:58;;;;;;;22.55;4.47;;;;;;;12.42;66.34;101408.28;5032615;28;20029;-96
2022/02/01 04:04:25;;;;;;;30.17;6.93;;;;;;;12.34;66.28;101408.75;5035704;28;20124;-96
2022/02/01 04:06:51;;;;;;;23.98;4.60;;;;;;;12.41;66.30;101404.81;5034093;28;20021;-96
2022/02/01 04:09:17;;;;;;;20.67;4.75;;;;;;;12.42;66.12;101403.91;5035359;28;20450;-96
2022/02/01 04:11:42;;;;;;;25.73;5.43;;;;;;;12.49;66.27;101404.38;5032021;28;20057;-95
2022/02/01 04:14:08;;;;;;;22.10;5.35;;;;;;;12.49;66.18;101412.25;5026085;28;20528;-96
2022/02/01 04:16:33;;;;;;;27.05;6.13;;;;;;;12.30;66.62;101407.22;5038766;28;20050;-96
2022/02/01 04:19:02;;;;;;;27.05;7.10;;;;;;;12.39;66.43;101409.34;5034125;28;20033;-96
2022/02/01 04:21:28;;;;;;;26.23;5.35;;;;;;;12.45;66.20;101416.88;5034146;28;20398;-96
2022/02/01 04:23:53;;;;;;;18.08;5.20;;;;;;;12.39;66.31;101405.84;5033992;28;20022;-96
2022/02/01 04:26:19;;;;;;;20.92;4.75;;;;;;;12.39;66.66;101406.69;5033944;28;20017;-95
2022/02/01 04:28:44;;;;;;;22.15;5.30;;;;;;;12.60;65.88;101415.09;5031255;28;20056;-96
2022/02/01 04:31:09;;;;;;;22.70;5.40;;;;;;;12.65;65.90;101420.94;5034146;28;20036;-96
2022/02/01 04:33:35;;;;;;;24.33;5.90;;;;;;;12.50;66.31;101413.97;5032847;28;20078;-96
2022/02/01 04:36:01;;;;;;;16.60;4.22;;;;;;;12.42;66.68;101396.00;5032404;28;20108;-96
2022/02/01 04:38:26;;;;;;;24.25;5.10;;;;;;;12.40;66.62;101402.28;5032523;28;20395;-96
2022/02/01 04:40:53;;;;;;;29.05;5.95;;;;;;;12.38;66.67;101388.34;5032143;28;20021;-95
2022/02/01 04:43:20;;;;;;;18.02;4.72;;;;;;;12.37;66.67;101382.25;5031820;28;20125;-95
2022/02/01 04:45:45;;;;;;;27.10;4.38;;;;;;;12.57;66.41;101375.75;5031926;28;20029;-95
2022/02/01 04:48:11;;;;;;;22.35;4.93;;;;;;;12.53;66.55;101382.16;5031895;28;20034;-96
2022/02/01 04:50:38;;;;;;;24.23;4.45;;;;;;;12.46;66.70;101376.44;5037565;28;20467;-96
2022/02/01 04:53:04;;;;;;;25.52;5.70;;;;;;;12.19;67.98;101384.19;5037323;28;20033;-96
2022/02/01 04:56:15;;;;;;;26.52;4.60;;;;;;;12.31;67.77;101393.16;5036262;28;20021;-96
2022/02/01 04:58:16;;;;;;;25.33;4.65;;;;;;;12.27;67.83;101379.31;5033507;28;20407;-96
2022/02/01 05:00:41;;;;;;;23.58;4.30;;;;;;;12.11;68.46;101402.22;5038401;28;20030;-96
2022/02/01 05:03:06;;;;;;;22.67;5.03;;;;;;;12.28;68.03;101391.56;5037359;28;20088;-96
2022/02/01 05:05:32;;;;;;;27.88;4.63;;;;;;;12.48;67.74;101389.50;5035733;28;20092;-96
2022/02/01 05:08:01;;;;;;;21.08;4.40;;;;;;;12.11;68.80;101389.06;5035242;28;20119;-95
2022/02/01 05:10:33;;;;;;;29.63;4.35;;;;;;;12.18;68.42;101377.22;5036521;28;20029;-96
2022/02/01 05:13:23;;;;;;;16.33;4.93;;;;;;;12.39;68.23;101361.09;5035299;28;20021;-95
2022/02/01 05:15:45;;;;;;;26.08;4.47;;;;;;;12.20;68.60;101338.47;5036103;28;20022;-96
2022/02/01 05:18:16;;;;;;;20.05;4.05;;;;;;;12.36;68.32;101338.41;5035348;28;20099;-96
2022/02/01 05:23:10;;;;;;;19.77;4.55;;;;;;;11.95;70.26;101339.09;5036629;28;20031;-96
2022/02/01 05:25:36;;;;;;;23.13;4.68;;;;;;;12.12;69.54;101353.88;5036192;28;20026;-96
2022/02/01 05:28:02;;;;;;;16.13;4.22;;;;;;;12.21;69.45;101353.34;5038427;28;20128;-96
2022/02/01 05:30:28;;;;;;;18.17;4.18;;;;;;;12.14;69.75;101344.09;5036005;28;20116;-96
2022/02/01 05:32:53;;;;;;;17.88;3.97;;;;;;;12.30;68.96;101328.22;5035281;28;20071;-96
2022/02/01 05:35:19;;;;;;;14.75;3.78;;;;;;;12.22;69.43;101331.34;5036616;28;20025;-96
2022/02/01 05:37:45;;;;;;;18.40;4.15;;;;;;;11.89;70.71;101345.56;5040472;28;20025;-96
2022/02/01 05:40:11;;;;;;;18.08;3.58;;;;;;;12.02;70.33;101334.31;5038981;28;20029;-96
2022/02/01 05:42:58;;;;;;;13.70;3.50;;;;;;;12.17;69.81;101324.66;5036409;28;20029;-96
2022/02/01 05:45:25;;;;;;;22.30;4.20;;;;;;;11.87;71.10;101315.84;5039249;28;20025;-96
2022/02/01 05:47:51;;;;;;;19.00;4.18;;;;;;;11.90;70.62;101315.66;5038829;28;20025;-95
2022/02/01 05:50:16;;;;;;;18.90;3.67;;;;;;;11.89;71.06;101315.78;5036310;28;20025;-96
2022/02/01 05:52:42;;;;;;;18.02;2.90;;;;;;;11.94;71.20;101326.03;5040564;28;20064;-96
2022/02/01 05:55:11;;;;;;;21.27;3.53;;;;;;;12.08;70.82;101310.25;5040269;28;20069;-96
2022/02/01 05:57:38;;;;;;;17.25;4.53;;;;;;;11.97;71.50;101310.06;5041973;28;20009;-96
2022/02/01 06:00:05;;;;;;;17.85;3.67;;;;;;;12.32;70.06;101310.56;5020686;28;20030;-96
2022/02/01 06:02:30;;;;;;;13.52;3.53;;;;;;;12.07;71.00;101311.22;5039090;28;20083;-96
2022/02/01 06:05:00;;;;;;;24.00;4.43;;;;;;;12.00;71.01;101305.44;5039643;28;20030;-96
2022/02/01 06:07:26;;;;;;;19.65;4.32;;;;;;;12.02;71.59;101315.88;5046272;28;20550;-96
2022/02/01 06:09:51;;;;;;;16.83;4.40;;;;;;;12.18;70.84;101300.84;5037487;28;20025;-96
2022/02/01 06:12:20;;;;;;;14.00;4.03;;;;;;;12.08;71.52;101313.75;5041685;28;20029;-96
2022/02/01 06:14:46;;;;;;;18.63;4.82;;;;;;;12.04;71.54;101311.38;5025311;28;20033;-96
2022/02/01 06:17:11;;;;;;;17.50;4.85;;;;;;;12.32;70.78;101309.72;5024648;28;20033;-96
2022/02/01 06:19:37;;;;;;;18.67;4.55;;;;;;;12.05;71.28;101320.97;5045541;28;20106;-96
2022/02/01 06:22:04;;;;;;;17.33;4.45;;;;;;;12.33;70.78;101337.75;5036739;28;20172;-96
2022/02/01 06:24:31;;;;;;;14.00;5.15;;;;;;;12.24;71.01;101310.19;5036986;28;20029;-96
2022/02/01 06:27:02;;;;;;;17.77;5.15;;;;;;;12.03;71.46;101317.59;5042795;28;20093;-96
2022/02/01 06:29:27;;;;;;;23.63;5.95;;;;;;;12.05;71.33;101313.94;5045418;28;20581;-96
2022/02/01 06:31:53;;;;;;;19.70;5.47;;;;;;;12.32;70.90;101317.63;5042773;28;20090;-96
2022/02/01 06:34:21;;;;;;;15.63;5.07;;;;;;;12.38;70.48;101306.69;5040284;28;20025;-96
2022/02/01 06:36:46;;;;;;;16.58;5.78;;;;;;;12.38;70.47;101315.47;5041467;28;20037;-95
2022/02/01 06:39:20;;;;;;;19.30;5.50;;;;;;;12.10;71.15;101292.59;5109438;22;20072;-96
2022/02/01 06:41:46;;;;;;;16.35;4.38;;;;;;;12.25;70.37;101299.56;5032702;28;20029;-96
2022/02/01 06:44:11;;;;;;;22.60;5.72;;;;;;;12.35;70.84;101293.75;5018546;28;20030;-96
2022/02/01 06:46:37;;;;;;;16.73;5.30;;;;;;;12.49;69.98;101291.09;5011055;28;20108;-96
2022/02/01 06:49:09;;;;;;;20.55;6.55;;;;;;;12.38;70.47;101304.06;5256112;22;20064;-95
2022/02/01 06:51:34;;;;;;;23.60;5.63;;;;;;;12.45;70.59;101293.06;5018174;28;20117;-95
2022/02/01 06:54:01;;;;;;;21.60;5.70;;;;;;;12.30;70.61;101291.38;5029900;23;20290;-95
2022/02/01 06:56:29;;;;;;;29.15;6.13;;;;;;;12.06;71.62;101298.97;5018977;28;20085;-95
2022/02/01 06:58:59;;;;;;;25.60;5.80;;;;;;;12.16;71.58;101301.91;5018249;28;20056;-95
2022/02/01 07:01:26;;;;;;;18.23;5.68;;;;;;;12.29;71.35;101314.22;5019131;28;20022;-94
2022/02/01 07:03:51;;;;;;;21.92;6.10;;;;;;;12.35;71.43;101322.72;5376555;23;20049;-96
2022/02/01 07:06:17;;;;;;;22.83;6.10;;;;;;;12.31;71.45;101311.50;5023948;28;20018;-96
2022/02/01 07:08:45;;;;;;;28.80;6.97;;;;;;;12.32;71.45;101304.44;5016585;28;20037;-94
2022/02/01 07:13:47;;;;;;;21.20;6.25;;;;;;;12.43;71.65;101328.34;5035007;28;20046;-96
2022/02/01 07:19:14;;;;;;;;;;;;;;;;;;;;;
2022/02/01 07:24:28;;;;;;;15.57;5.05;;;;;;;12.58;71.54;101337.97;5040442;22;20046;-96
2022/02/01 07:26:57;;;;;;;25.17;5.82;;;;;;;12.43;71.35;101329.19;5030843;28;20026;-96
2022/02/01 07:32:01;;;;;;;22.80;6.22;;;;;;;12.56;71.71;101360.03;3187235;22;20140;-94
2022/02/01 07:34:26;;;;;;;28.23;6.60;;;;;;;12.64;70.93;101353.38;5001857;28;20060;-95
2022/02/01 07:36:52;;;;;;;20.80;6.55;;;;;;;12.80;70.86;101362.97;5013449;28;20026;-96
2022/02/01 07:39:17;;;;;;;21.70;5.53;;;;;;;12.76;71.02;101364.94;5027054;28;20057;-96
2022/02/01 07:41:43;;;;;;;23.92;6.57;;;;;;;12.80;70.51;101349.81;5017173;28;20057;-95
2022/02/01 07:44:09;;;;;;;25.98;6.70;;;;;;;12.48;71.98;101347.38;5015011;28;20544;-95
2022/02/01 07:46:35;;;;;;;21.48;6.88;;;;;;;12.64;71.72;101348.13;5016477;28;20037;-94
2022/02/01 07:49:00;;;;;;;26.88;7.40;;;;;;;12.79;71.01;101361.28;5028903;28;20030;-96
2022/02/01 07:51:26;;;;;;;28.98;7.82;;;;;;;12.50;71.68;101353.38;5030924;28;20030;-96
2022/02/01 07:53:51;;;;;;;23.80;8.48;;;;;;;12.55;72.05;101359.22;5012397;28;20033;-94
2022/02/01 07:56:16;;;;;;;25.27;7.82;;;;;;;12.62;72.01;101354.44;5012130;28;20033;-96
2022/02/01 07:58:42;;;;;;;32.22;8.13;;;;;;;12.54;71.89;101357.53;5016212;28;20026;-95
2022/02/01 08:01:07;;;;;;;32.38;9.23;;;;;;;12.75;71.36;101367.69;5009857;28;20029;-95
2022/02/01 08:03:33;;;;;;;28.73;9.55;;;;;;;12.51;72.07;101352.44;5010704;28;20040;-96
2022/02/01 08:05:58;;;;;;;36.75;9.00;;;;;;;12.47;72.30;101343.88;5015804;28;20097;-95
2022/02/01 08:08:24;;;;;;;36.20;9.35;;;;;;;12.65;71.59;101339.25;5011764;28;20041;-94
2022/02/01 08:10:52;;;;;;;35.35;10.07;;;;;;;12.84;70.97;101340.75;5030652;28;20053;-95
2022/02/01 08:21:10;;;;;;;29.13;8.82;;;;;;;12.68;71.38;101318.00;5027574;28;20387;-94
2022/02/01 08:23:35;;;;;;;27.17;9.65;;;;;;;12.70;71.64;101326.66;5031289;28;20029;-94
2022/02/01 08:26:01;;;;;;;38.63;9.98;;;;;;;12.66;71.68;101333.06;5015320;28;20057;-94
2022/02/01 08:28:27;;;;;;;31.38;11.25;;;;;;;12.81;71.50;101348.84;5012429;28;20037;-95
2022/02/01 08:30:54;;;;;;;39.58;11.00;;;;;;;12.95;70.74;101338.28;5018877;28;20030;-94
2022/02/01 08:33:22;;;;;;;30.85;11.35;;;;;;;12.61;71.83;101343.03;5011965;28;20026;-92
2022/02/01 08:35:48;;;;;;;23.05;10.85;;;;;;;12.84;71.48;101349.50;5012376;28;20026;-93
2022/02/01 08:38:13;;;;;;;29.88;11.32;;;;;;;12.99;70.29;101352.94;5011055;28;20030;-92
2022/02/01 08:40:49;;;;;;;38.35;12.18;;;;;;;12.67;71.45;101345.28;5040792;22;20053;-96
2022/02/01 08:43:16;;;;;;;26.02;10.73;;;;;;;12.70;71.21;101331.91;5021629;28;20034;-96
2022/02/01 08:45:43;;;;;;;29.05;11.48;;;;;;;12.90;70.80;101343.00;5014573;28;20395;-96
2022/02/01 08:48:08;;;;;;;31.75;11.35;;;;;;;12.94;70.78;101339.25;5023199;28;20456;-96
2022/02/01 08:50:35;;;;;;;29.58;10.40;;;;;;;13.14;70.04;101347.69;5031598;28;20021;-96
2022/02/01 08:53:21;;;;;;;27.42;8.77;;;;;;;13.03;70.34;101346.56;5032429;28;20498;-96
2022/02/01 08:58:19;;;;;;;25.15;8.23;;;;;;;13.19;70.37;101356.13;5033639;28;20042;-96
2022/02/01 09:00:45;;;;;;;26.70;8.75;;;;;;;13.08;70.82;101356.81;5034772;28;20025;-96
2022/02/01 09:03:12;;;;;;;22.00;6.88;;;;;;;13.40;69.68;101346.03;5041144;28;20031;-96
2022/02/01 09:05:40;;;;;;;24.67;8.50;;;;;;;13.45;69.39;101344.78;5040224;28;20558;-96
2022/02/01 09:08:05;;;;;;;17.65;7.47;;;;;;;13.56;69.18;101359.06;5035471;28;20079;-95
2022/02/01 09:10:31;;;;;;;21.65;7.53;;;;;;;13.55;68.88;101349.47;5033202;28;20017;-96
2022/02/01 09:12:59;;;;;;;26.75;7.43;;;;;;;13.50;69.44;101341.84;5037204;28;20075;-95
2022/02/01 09:15:26;;;;;;;18.63;6.90;;;;;;;13.90;68.11;101339.19;5034420;28;20053;-96
2022/02/01 09:17:53;;;;;;;30.23;7.20;;;;;;;13.71;68.99;101338.75;5033700;28;20029;-96
2022/02/01 09:20:19;;;;;;;20.77;7.00;;;;;;;13.81;68.11;101335.38;5032134;28;20025;-96
2022/02/01 09:22:45;;;;;;;18.38;6.45;;;;;;;13.65;68.59;101334.72;5034683;28;20117;-96
2022/02/01 09:25:10;;;;;;;16.75;5.75;;;;;;;13.88;68.08;101341.97;5034725;28;20085;-96
2022/02/01 09:27:36;;;;;;;19.20;5.68;;;;;;;13.72;68.59;101343.91;5035370;28;20032;-96
2022/02/01 09:30:03;;;;;;;18.70;5.60;;;;;;;13.91;68.06;101342.69;5033109;28;20087;-96
2022/02/01 09:32:29;;;;;;;17.90;5.95;;;;;;;14.17;67.29;101357.63;5033876;28;20013;-96
2022/02/01 09:34:54;;;;;;;17.48;5.35;;;;;;;14.40;66.92;101347.28;5033886;28;20048;-96
2022/02/01 09:37:21;;;;;;;15.18;4.72;;;;;;;14.53;66.98;101352.56;5036749;28;20021;-96
2022/02/01 09:39:47;;;;;;;16.52;5.05;;;;;;;15.05;66.04;101347.09;5038560;28;20022;-96
2022/02/01 09:42:12;;;;;;;15.48;5.15;;;;;;;15.10;65.43;101340.63;5038169;28;20029;-96
2022/02/01 09:44:38;;;;;;;15.52;3.92;;;;;;;15.66;63.46;101340.94;5038392;28;20028;-96
2022/02/01 09:47:03;;;;;;;17.05;4.85;;;;;;;15.80;62.69;101337.28;5036481;28;20116;-96
2022/02/01 09:49:29;;;;;;;18.02;5.20;;;;;;;16.63;61.08;101334.41;5035893;28;20046;-96
2022/02/01 09:51:57;;;;;;;13.68;4.05;;;;;;;16.67;60.49;101340.31;5037519;28;20426;-96
2022/02/01 09:54:25;;;;;;;10.45;3.97;;;;;;;16.48;60.33;101340.06;5035194;28;20529;-96
2022/02/01 09:56:52;;;;;;;12.98;4.40;;;;;;;16.59;60.28;101342.72;5037507;28;20035;-96
2022/02/01 09:59:31;;;;;;;8.65;3.78;;;;;;;17.72;57.96;101342.50;5038172;28;20033;-96
2022/02/01 10:02:04;;;;;;;9.50;3.45;;;;;;;17.45;58.28;101341.13;5036537;28;20447;-96
2022/02/01 10:04:29;;;;;;;9.50;3.30;;;;;;;17.27;57.74;101330.22;5036744;28;20059;-96
2022/02/01 10:07:14;;;;;;;6.80;3.00;;;;;;;17.78;57.17;101342.81;5035993;28;20022;-95
2022/02/01 10:09:54;;;;;;;7.72;3.25;;;;;;;17.67;57.35;101331.41;5034579;28;20102;-95
2022/02/01 10:12:20;;;;;;;9.15;3.05;;;;;;;17.96;56.83;101331.66;5035088;28;20021;-95
2022/02/01 10:14:53;;;;;;;9.65;3.45;;;;;;;18.00;56.16;101325.94;5035030;28;20022;-96
2022/02/01 10:17:40;;;;;;;8.98;2.95;;;;;;;18.62;54.95;101328.63;5034934;28;20029;-95
2022/02/01 10:20:07;;;;;;;6.97;2.63;;;;;;;18.83;54.97;101333.91;5015191;28;20083;-95
2022/02/01 10:22:34;;;;;;;10.55;3.20;;;;;;;18.89;53.75;101332.53;5014890;28;20029;-96
2022/02/01 10:25:03;;;;;;;6.97;2.92;;;;;;;18.91;54.38;101336.75;5014680;28;20034;-96
2022/02/01 10:27:31;;;;;;;8.68;2.72;;;;;;;19.15;53.59;101322.22;5014749;28;20022;-95
2022/02/01 10:30:05;;;;;;;8.55;2.60;;;;;;;19.65;52.68;101330.13;5014616;28;20025;-96
2022/02/01 10:33:13;;;;;;;8.23;2.83;;;;;;;19.19;52.72;101318.31;5016237;28;20037;-95
2022/02/01 10:38:03;;;;;;;9.77;3.83;;;;;;;19.97;51.71;101319.16;5036207;28;20368;-95
2022/02/01 10:40:42;;;;;;;5.72;2.45;;;;;;;20.13;50.54;101326.56;5035421;28;20033;-96
2022/02/01 10:43:21;;;;;;;5.88;2.30;;;;;;;19.38;51.76;101336.13;5034653;28;20025;-96
2022/02/01 10:45:48;;;;;;;3.92;1.90;;;;;;;19.15;52.67;101332.88;5033874;28;20022;-96
2022/02/01 10:48:15;;;;;;;8.90;3.38;;;;;;;18.97;52.45;101330.88;5033261;28;20056;-94
2022/02/01 10:50:41;;;;;;;6.20;2.60;;;;;;;18.52;54.09;101333.94;5034281;28;20163;-95
2022/02/01 10:53:21;;;;;;;8.35;2.95;;;;;;;18.27;54.60;101335.19;5034170;28;20472;-96
2022/02/01 10:55:48;;;;;;;7.22;3.30;;;;;;;18.13;55.31;101333.72;5034269;28;20031;-96
2022/02/01 10:58:15;;;;;;;6.40;3.08;;;;;;;17.82;55.46;101338.09;5033922;28;20029;-96
2022/02/01 11:00:42;;;;;;;9.05;3.40;;;;;;;17.62;56.30;101337.09;5033522;28;20052;-96
2022/02/01 11:03:14;;;;;;;4.72;2.25;;;;;;;17.47;56.89;101343.69;5033058;28;20025;-94
2022/02/01 11:05:50;;;;;;;6.57;2.50;;;;;;;17.49;57.35;101344.38;5033540;28;20117;-94
2022/02/01 11:08:29;;;;;;;9.70;3.67;;;;;;;17.24;57.81;101327.84;5033240;28;20036;-94
2022/02/01 11:10:56;;;;;;;10.73;3.22;;;;;;;17.26;58.45;101331.22;5033603;28;20021;-95
2022/02/01 11:13:23;;;;;;;7.55;2.83;;;;;;;17.68;58.32;101325.13;5033415;28;20383;-96
2022/02/01 11:16:02;;;;;;;7.03;3.10;;;;;;;17.89;57.06;101320.72;5033315;28;20506;-95
2022/02/01 11:18:29;;;;;;;7.05;3.25;;;;;;;18.53;56.55;101332.94;5033050;28;20029;-94
2022/02/01 11:21:11;;;;;;;9.20;3.75;;;;;;;18.57;54.93;101329.03;5037906;28;20017;-95
2022/02/01 11:23:46;;;;;;;10.63;4.22;;;;;;;18.40;55.83;101327.84;5028363;28;20025;-96
2022/02/01 11:26:50;;;;;;;9.45;3.38;;;;;;;18.89;55.24;101322.72;5021047;28;20030;-95
2022/02/01 11:31:54;;;;;;;9.68;4.45;;;;;;;19.08;54.01;101313.97;5026092;28;20048;-94
2022/02/01 11:34:30;;;;;;;8.63;4.35;;;;;;;18.84;54.61;101319.66;5029202;28;20501;-93
2022/02/01 11:37:07;;;;;;;8.65;3.47;;;;;;;18.44;55.58;101307.13;5024779;28;20037;-93
2022/02/01 11:39:33;;;;;;;11.20;3.63;;;;;;;18.66;55.10;101316.75;5032593;28;20029;-94
2022/02/01 11:42:00;;;;;;;8.85;3.75;;;;;;;19.20;54.44;101306.69;5033035;28;20032;-94
2022/02/01 11:44:29;;;;;;;10.13;3.72;;;;;;;18.72;54.69;101310.91;5033927;28;20475;-95
2022/02/01 11:47:06;;;;;;;7.88;3.10;;;;;;;18.75;54.62;101301.81;5033748;28;20052;-95
2022/02/01 11:49:32;;;;;;;9.95;3.17;;;;;;;18.74;54.74;101297.44;5032687;28;20116;-95
2022/02/01 11:52:13;;;;;;;11.30;3.63;;;;;;;18.91;54.57;101288.84;5032133;28;20033;-94
2022/02/01 11:54:42;;;;;;;7.57;3.30;;;;;;;18.95;54.61;101290.25;5032891;28;20032;-95
2022/02/01 11:57:29;;;;;;;11.15;3.97;;;;;;;18.26;55.70;101284.81;5022251;28;20040;-94
2022/02/01 11:59:56;;;;;;;10.65;3.53;;;;;;;18.75;54.98;101293.81;5033887;28;20044;-95
2022/02/01 12:02:41;;;;;;;13.65;4.03;;;;;;;19.02;53.37;101266.59;5052932;22;20097;-95
2022/02/01 12:05:09;;;;;;;8.48;3.55;;;;;;;19.34;53.86;101269.00;5017588;28;20042;-96
2022/02/01 12:24:05;;;;;;;9.45;3.53;;;;;;;19.16;54.46;101284.00;5936340;22;20057;-96
2022/02/01 13:44:10;;;;;;;16.13;3.58;;;;;;;18.73;55.62;101218.63;5916988;22;20041;-96
2022/02/01 15:17:42;;;;;;;16.42;3.85;;;;;;;16.19;62.02;101243.31;4977712;28;20039;-95
2022/02/01 15:20:10;;;;;;;12.40;3.20;;;;;;;16.36;62.05;101263.19;4979547;28;20008;-94
2022/02/01 15:22:38;;;;;;;24.08;4.47;;;;;;;16.17;62.44;101247.03;4978085;28;20116;-95
2022/02/01 15:25:04;;;;;;;14.73;3.95;;;;;;;16.08;62.47;101248.59;4977295;28;20039;-94
2022/02/01 15:27:30;;;;;;;13.27;3.72;;;;;;;16.02;62.48;101235.84;4976292;28;20007;-95
2022/02/01 15:29:55;;;;;;;17.40;3.85;;;;;;;16.27;61.72;101242.69;4976401;28;20070;-94
2022/02/01 15:34:56;;;;;;;13.93;2.95;;;;;;;16.33;61.70;101241.38;5603140;22;20042;-95
2022/02/01 15:37:27;;;;;;;17.50;3.63;;;;;;;16.38;61.80;101234.75;5079836;23;20060;-96
2022/02/01 15:58:51;;;;;;;15.40;3.50;;;;;;;16.00;62.68;101243.06;5016770;28;20061;-96
2022/02/01 16:01:34;;;;;;;19.65;4.50;;;;;;;15.90;62.80;101239.44;5017131;28;19998;-96
2022/02/01 16:11:51;;;;;;;10.38;3.38;;;;;;;15.92;62.90;101242.81;5099981;23;20058;-96
2022/02/01 16:16:54;;;;;;;14.10;3.83;;;;;;;16.06;62.75;101254.03;5842243;22;20030;-96
2022/02/01 16:21:57;;;;;;;8.65;2.58;;;;;;;16.20;62.37;101241.50;5767657;22;20048;-96
2022/02/01 16:24:24;;;;;;;11.88;2.85;;;;;;;16.23;62.11;101242.13;5057632;28;20010;-96
2022/02/01 16:26:49;;;;;;;15.00;3.17;;;;;;;16.24;61.70;101249.09;5058059;28;20020;-96
2022/02/01 16:29:15;;;;;;;16.00;3.00;;;;;;;16.14;61.84;101250.78;5044474;28;20022;-96
2022/02/01 17:36:20;;;;;;;12.40;2.70;;;;;;;15.21;64.22;101286.00;5132553;23;20046;-96
2022/02/01 17:43:50;;;;;;;16.00;7.03;;;;;;;15.16;64.83;101297.88;5398318;23;20054;-96
2022/02/01 17:46:15;;;;;;;16.85;6.88;;;;;;;15.30;64.47;101296.84;4969947;28;20031;-93
2022/02/01 17:48:43;;;;;;;13.93;5.13;;;;;;;15.44;63.96;101300.19;4972953;28;20114;-94
2022/02/01 17:51:26;;;;;;;9.98;3.55;;;;;;;15.39;64.39;101302.31;4972675;28;20297;-94
2022/02/01 17:56:18;;;;;;;12.38;4.50;;;;;;;15.17;65.02;101295.13;4971895;28;20480;-91
2022/02/01 17:58:48;;;;;;;17.67;4.68;;;;;;;15.17;64.95;101297.75;4977576;28;20425;-93
2022/02/01 18:01:14;;;;;;;11.30;4.15;;;;;;;15.21;64.66;101308.97;4975918;28;20472;-94
2022/02/01 18:03:40;;;;;;;10.57;3.30;;;;;;;15.29;64.70;101308.41;4974255;28;20050;-93
2022/02/01 18:06:06;;;;;;;14.82;4.65;;;;;;;15.14;64.72;101303.25;4974723;28;20027;-94